• Join FlightAware (Why Join?)
  • Login
  • US Flag GB Flag 
03:44 EDT


 

Airport Tracker/Info


-or-


 

Live Flight TrackerFlight Track Log ✈ TCF3494 ✈ 14-Jun-2013 ✈ KORD - KLGA

Flight Track Log - Related Links

Times and Time Zones

All times are in EDT time to prevent confusion due to time zone crossing. See the TCF3494 flight status page for this flight to view local times or setup timezone preferences in your user account.

Time Position Orientation Groundspeed Altitude Reporting Facility
EDT Latitude Longitude Course Direction KTS MPH feet Rate Location/Type
21:25 42.0167 -87.8333 90° East 209 241 3,800  Level Chicago TRACON
21:25 42.0317 -87.8064 53° Northeast 221 254 4,700 2,460 Climbing Chicago Center
21:26 42.0289 -87.7075 92° East 271 312 7,100 2,640 Climbing Chicago Center
21:27 41.9451 -87.2973 95° East  Level FlightAware Approximate
21:27 42.0153 -87.5947 99° East 302 348 10,200  Level Chicago Center
21:28 41.9343 -87.1469 95° East  Level FlightAware Approximate
21:28 42.0003 -87.4758 100° East 318 366 13,000  Level Chicago Center
21:29 41.9333 -86.9959 90° East  Level FlightAware Approximate
21:29 41.9833 -87.3525 100° East 334 384 15,700  Level Chicago Center
21:30 41.9333 -86.8448 90° East  Level FlightAware Approximate
21:30 41.9667 -87.2247 100° East 346 398 18,400  Level Chicago Center
21:31 41.9458 -87.0594 100° East 381 438 20,400 1,980 Climbing Chicago Center
21:32 41.9469 -86.9175 89° East 382 440 22,500 1,860 Climbing Chicago Center
21:33 41.9489 -86.7681 89° East 400 460 24,300 1,560 Climbing Chicago Center
21:34 41.9511 -86.6167 89° East 416 479 25,800 1,440 Climbing Chicago Center
21:36 41.9531 -86.4550 89° East 431 496 27,300 1,500 Climbing Chicago Center
21:37 41.9550 -86.2917 89° East 439 505 28,900 1,500 Climbing Chicago Center
21:38 41.9453 -86.0894 94° East 450 518 30,400 1,140 Climbing Chicago Center
21:39 41.9278 -85.9169 98° East 461 531 31,300 900 Climbing Chicago Center
21:40 41.9111 -85.7411 97° East 470 541 32,300 960 Climbing Chicago Center
21:41 41.8944 -85.5650 97° East 471 542 33,400 1,020 Climbing Chicago Center
21:42 41.8769 -85.3875 97° East 473 544 34,500 780 Climbing Chicago Center
21:43 41.8600 -85.2083 97° East 481 554 35,000 240 Climbing Chicago Center
21:44 41.8408 -85.0286 98° East 484 557 35,000  Level Chicago Center
21:45 41.8228 -84.8478 98° East 489 563 35,000  Level Chicago Center
21:46 41.8036 -84.6711 98° East 480 552 35,000  Level Chicago Center
21:47 41.7847 -84.4944 98° East 480 552 35,000  Level Chicago Center
21:48 41.7792 -84.2897 92° East 479 551 35,000  Level Cleveland Center
21:49 41.7736 -84.1333 93° East 468 539 35,000  Level Cleveland Center
21:50 41.7725 -83.9606 90° East 463 533 35,000  Level Cleveland Center
21:51 41.7692 -83.7878 91° East 463 533 35,000  Level Cleveland Center
21:52 41.7678 -83.6150 91° East 463 533 35,000  Level Cleveland Center
21:53 41.7575 -83.4419 94° East 463 533 35,000  Level Cleveland Center
21:54 41.7408 -83.2714 97° East 463 533 35,000  Level Cleveland Center
21:55 41.7239 -83.1011 98° East 463 533 35,000  Level Cleveland Center
21:56 41.7067 -82.9278 98° East 463 533 35,000  Level Cleveland Center
21:57 41.6892 -82.7547 98° East 463 533 35,000  Level Cleveland Center
21:58 41.6714 -82.5819 98° East 468 539 35,000  Level Cleveland Center
21:59 41.6556 -82.4147 97° East 468 539 35,000  Level Cleveland Center
22:00 41.6372 -82.2447 98° East 462 532 35,000  Level Cleveland Center
22:01 41.6169 -82.0608 98° East 462 532 35,000  Level Cleveland Center
22:02 41.5983 -81.8825 98° East 468 539 35,000  Level Cleveland Center
22:03 41.5792 -81.7100 98° East 468 539 35,000  Level Cleveland Center
22:04 41.5600 -81.5322 98° East 468 539 35,000  Level Cleveland Center
22:05 41.5406 -81.3572 98° East 468 539 35,000  Level Cleveland Center
22:06 41.5186 -81.1822 99° East 468 539 35,000  Level Cleveland Center
22:07 41.5025 -81.0211 98° East 481 554 35,000  Level Cleveland Center
22:08 41.4886 -80.8408 96° East 486 559 35,000  Level Cleveland Center
22:09 41.4700 -80.6636 98° East 486 559 35,000  Level Cleveland Center
22:10 41.4556 -80.4806 96° East 486 559 35,000  Level Cleveland Center
22:11 41.4386 -80.2867 97° East 486 559 35,000  Level Cleveland Center
22:12 41.4211 -80.1042 97° East 486 559 35,000  Level Cleveland Center
22:13 41.4058 -79.9464 97° East 480 552 35,000  Level Cleveland Center
22:14 41.3881 -79.7694 98° East 480 552 35,000  Level Cleveland Center
22:15 41.3678 -79.5678 98° East 486 559 35,000  Level Cleveland Center
22:16 41.3492 -79.3911 98° East 486 559 35,000  Level Cleveland Center
22:17 41.3328 -79.2308 98° East 486 559 35,000  Level Cleveland Center
22:18 41.3139 -79.0544 98° East 481 554 35,000  Level Cleveland Center
22:19 41.2944 -78.8558 97° East 488 562 35,000  Level Cleveland Center
22:21 41.2622 -78.5525 98° East 499 574 35,000 -420 Level New York Center
22:22 41.2406 -78.3733 99° East 488 562 33,900 -1,800 Descending New York Center
22:23 41.2203 -78.1972 99° East 488 562 31,400 -1,440 Descending New York Center
22:24 41.2003 -78.0183 98° East 488 562 31,000 -240 Descending New York Center
22:25 41.1772 -77.8450 100° East 488 562 31,000 -1,140 Level New York Center
22:26 41.1542 -77.6689 100° East 488 562 28,800 -1,980 Descending New York Center
22:27 41.1344 -77.5042 99° East 474 545 27,000 -960 Descending New York Center
22:28 41.1125 -77.3422 100° East 460 529 27,000  Level New York Center
22:29 41.0900 -77.1803 100° East 448 516 27,000  Level New York Center
22:30 41.0697 -77.0158 99° East 448 516 27,000  Level New York Center
22:31 41.0467 -76.8569 101° East 448 516 27,000 -720 Level New York Center
22:32 41.0236 -76.6925 100° East 448 516 25,700 -1,860 Descending New York Center
22:33 40.9897 -76.5356 106° East 453 521 23,400 -2,280 Descending New York Center
22:34 40.9567 -76.4036 108° East 440 506 21,200 -2,160 Descending New York Center
22:35 40.9256 -76.2667 107° East 414 476 19,100 -1,140 Descending New York Center
22:36 40.8889 -76.1097 107° East 401 461 19,000 -60 Descending New York Center
22:37 40.8572 -75.9811 108° East 401 461 19,000 -3,000 Level New York Center
22:38 40.8236 -75.8386 107° East 401 461 13,000 -3,000 Descending New York Center
22:39 40.7881 -75.6936 108° East 386 444 13,000  Level New York Center
22:40 40.7539 -75.5650 109° East 373 429 13,000  Level New York Center
22:41 40.7272 -75.4536 107° East 368 423 13,000  Level New York Center
22:42 40.6972 -75.3092 105° East 368 423 13,000  Level New York Center
22:43 40.6728 -75.1844 104° East 363 418 13,000 -600 Level New York Center
22:44 40.6144 -75.0769 126° Southeast 363 418 11,900 -1,500 Descending New York Center
22:45 40.5575 -74.9750 126° Southeast 355 409 10,000 -900 Descending New York Center
22:46 40.5242 -74.8583 111° Southeast 341 392 10,100  Climbing New York Center
22:46 40.5000 -74.7833 113° Southeast 290 334 10,000  Descending New York TRACON
22:47 40.4667 -74.6833 114° Southeast 250 288 10,100  Climbing New York TRACON
22:48 40.4500 -74.6000 105° East 252 290 10,100  Level New York TRACON
22:49 40.4167 -74.5333 123° Southeast 231 266 10,100 -540 Level New York TRACON
22:50 40.3833 -74.4500 118° Southeast 227 261 9,100 -1,200 Descending New York TRACON
22:51 40.3833 -74.3833 90° East 214 246 7,800 -1,020 Descending New York TRACON
22:52 40.4000 -74.3167 72° East 200 230 7,100 -360 Descending New York TRACON
22:53 40.4333 -74.2500 57° Northeast 196 226 7,100 -360 Level New York TRACON
22:54 40.4667 -74.2000 49° Northeast 193 222 6,400 -1,080 Descending New York TRACON
22:55 40.5000 -74.1500 49° Northeast 195 224 5,000 -1,200 Descending New York TRACON
22:56 40.5333 -74.1000 49° Northeast 192 221 4,100 -480 Descending New York TRACON
22:57 40.5667 -74.0500 49° Northeast 190 219 4,100  Level New York TRACON
22:58 40.6167 -74.0167 27° Northeast 188 216 4,100 -660 Level New York TRACON
22:59 40.6667 -73.9667 37° Northeast 181 208 2,800 -780 Descending New York TRACON
23:00 40.7000 -73.9333 37° Northeast 181 208 2,600 -240 Descending New York TRACON